Time;durP1;ratioP1;P1;durP2;ratioP2;P2;SDS_P1;SDS_P2;PMS_P1;PMS_P2;Temp;Humidity;BMP_temperature;BMP_pressure;BME280_temperature;BME280_humidity;BME280_pressure;Samples;Min_cycle;Max_cycle;Signal;HPM_P1;HPM_P2
2023/03/29 00:01:40;;;;;;;;;;;;;;;3.64;70.93;101980.69;4957638;28;19937;-73
2023/03/29 00:04:06;;;;;;;;;;;;;;;3.73;72.19;101986.69;4964160;28;20317;-75
2023/03/29 00:06:32;;;;;;;;;;;;;;;3.73;71.44;101978.72;4942780;28;19948;-73
2023/03/29 00:08:58;;;;;;;;;;;;;;;3.65;72.19;101982.31;4948378;28;20027;-73
2023/03/29 00:11:26;;;;;;;;;;;;;;;3.66;73.13;101969.88;4958430;28;20424;-73
2023/03/29 00:13:54;;;;;;;;;;;;;;;3.58;73.49;101972.69;4958590;28;19950;-73
2023/03/29 00:16:19;;;;;;;;;;;;;;;3.45;74.25;101971.56;4937982;28;20004;-73
2023/03/29 00:18:45;;;;;;;;;;;;;;;3.40;74.61;101963.41;4964185;28;19938;-74
2023/03/29 00:21:11;;;;;;;;;;;;;;;3.32;75.58;101960.91;4962165;28;19954;-72
2023/03/29 00:23:36;;;;;;;;;;;;;;;3.29;77.15;101950.69;4961387;28;20430;-73
2023/03/29 00:26:06;;;;;;;;;;;;;;;3.15;76.72;101951.59;4960173;28;19935;-74
2023/03/29 00:28:31;;;;;;;;;;;;;;;3.17;77.23;101945.09;4980214;28;19932;-73
2023/03/29 00:31:11;;;;;;;;;;;;;;;3.07;77.93;101941.16;4963395;28;19950;-73
2023/03/29 00:33:36;;;;;;;;;;;;;;;3.06;78.96;101924.44;4944322;28;20021;-75
2023/03/29 00:36:03;;;;;;;;;;;;;;;3.09;78.60;101923.25;4953216;28;20505;-74
2023/03/29 00:38:32;;;;;;;;;;;;;;;3.07;77.60;101914.69;4961531;28;20063;-73
2023/03/29 00:41:01;;;;;;;;;;;;;;;3.01;79.12;101913.59;4939068;28;19954;-73
2023/03/29 00:43:27;;;;;;;;;;;;;;;2.91;79.22;101903.34;4944768;28;19963;-73
2023/03/29 00:45:53;;;;;;;;;;;;;;;2.79;79.28;101899.59;4949309;28;19974;-74
2023/03/29 00:48:20;;;;;;;;;;;;;;;2.71;79.82;101891.78;4945377;28;19946;-74
2023/03/29 00:50:52;;;;;;;;;;;;;;;2.68;80.29;101890.31;4960300;28;19958;-74
2023/03/29 00:53:18;;;;;;;;;;;;;;;2.77;80.93;101892.81;4960018;28;20721;-72
2023/03/29 00:55:51;;;;;;;;;;;;;;;2.76;81.08;101884.06;4947184;28;20021;-73
2023/03/29 00:58:21;;;;;;;;;;;;;;;2.77;81.05;101883.06;4956444;28;20694;-75
2023/03/29 01:00:50;;;;;;;;;;;;;;;2.77;80.51;101883.06;4956486;28;19961;-73
2023/03/29 01:03:23;;;;;;;;;;;;;;;2.76;79.95;101875.31;4958468;28;19943;-73
2023/03/29 01:05:50;;;;;;;;;;;;;;;2.78;79.76;101874.13;4943420;28;20427;-74
2023/03/29 01:08:20;;;;;;;;;;;;;;;2.79;79.93;101872.31;4943817;28;19937;-73
2023/03/29 01:10:50;;;;;;;;;;;;;;;2.78;79.93;101862.72;4953428;28;19956;-73
2023/03/29 01:13:33;;;;;;;;;;;;;;;2.69;79.80;101867.31;4942659;28;20081;-73
2023/03/29 01:15:59;;;;;;;;;;;;;;;2.68;81.12;101863.03;4930940;28;19935;-74
2023/03/29 01:18:25;;;;;;;;;;;;;;;2.69;80.97;101859.38;4932231;28;21288;-74
2023/03/29 01:20:55;;;;;;;;;;;;;;;2.70;80.72;101855.72;4957202;28;19947;-73
2023/03/29 01:23:26;;;;;;;;;;;;;;;2.73;79.40;101850.06;4945261;28;19942;-74
2023/03/29 01:26:08;;;;;;;;;;;;;;;2.68;80.13;101847.19;4961519;28;19934;-74
2023/03/29 01:28:39;;;;;;;;;;;;;;;2.73;79.89;101844.78;4959788;28;19937;-73
2023/03/29 01:31:18;;;;;;;;;;;;;;;2.73;79.06;101844.78;4941547;28;20527;-73
2023/03/29 01:33:47;;;;;;;;;;;;;;;2.77;77.92;101835.44;4920896;28;19967;-73
2023/03/29 01:36:17;;;;;;;;;;;;;;;2.88;76.62;101834.13;4976054;28;20401;-73
2023/03/29 01:38:47;;;;;;;;;;;;;;;2.92;75.47;101828.25;4941566;28;20410;-73
2023/03/29 01:41:13;;;;;;;;;;;;;;;2.89;74.54;101807.47;4926423;28;19931;-72
2023/03/29 01:43:48;;;;;;;;;;;;;;;2.86;73.25;101810.50;4932598;28;19940;-72
2023/03/29 01:46:19;;;;;;;;;;;;;;;2.79;74.71;101807.00;4940502;28;19938;-73
2023/03/29 01:48:45;;;;;;;;;;;;;;;2.68;75.32;101797.75;4963144;28;20461;-72
2023/03/29 01:51:14;;;;;;;;;;;;;;;2.64;76.00;101793.00;4956449;28;19935;-74
2023/03/29 01:53:45;;;;;;;;;;;;;;;2.61;75.44;101793.41;4959886;28;19961;-75
2023/03/29 01:56:13;;;;;;;;;;;;;;;2.58;74.96;101786.69;4935930;28;19947;-72
2023/03/29 01:58:43;;;;;;;;;;;;;;;2.57;75.02;101785.03;4960785;28;19990;-73
2023/03/29 02:01:10;;;;;;;;;;;;;;;2.56;75.32;101791.31;4939582;28;19939;-73
2023/03/29 02:03:41;;;;;;;;;;;;;;;2.52;76.03;101783.97;4942837;28;20030;-73
2023/03/29 02:06:11;;;;;;;;;;;;;;;2.52;76.29;101782.16;4948992;28;20050;-75
2023/03/29 02:08:37;;;;;;;;;;;;;;;2.56;75.56;101777.28;4961959;28;19941;-72
2023/03/29 02:11:03;;;;;;;;;;;;;;;2.61;74.75;101775.72;4957328;28;19938;-73
2023/03/29 02:13:31;;;;;;;;;;;;;;;2.62;74.36;101763.31;4965514;28;20014;-72
2023/03/29 02:16:00;;;;;;;;;;;;;;;2.57;74.34;101760.41;4951245;28;20011;-73
2023/03/29 02:18:26;;;;;;;;;;;;;;;2.53;74.39;101759.97;4947720;28;19940;-72
2023/03/29 02:20:53;;;;;;;;;;;;;;;2.52;74.23;101768.13;4962854;28;20327;-73
2023/03/29 02:23:39;;;;;;;;;;;;;;;2.53;73.58;101757.34;4947008;28;19940;-72
2023/03/29 02:26:07;;;;;;;;;;;;;;;2.56;74.38;101758.78;4946650;28;19940;-71
2023/03/29 02:28:34;;;;;;;;;;;;;;;2.52;74.81;101757.53;4965727;28;19938;-73
2023/03/29 02:31:09;;;;;;;;;;;;;;;2.51;73.82;101769.09;4961415;28;19957;-74
2023/03/29 02:33:38;;;;;;;;;;;;;;;2.51;74.39;101761.16;4946413;28;19956;-74
2023/03/29 02:36:16;;;;;;;;;;;;;;;2.46;74.81;101752.00;4951484;28;19941;-73
2023/03/29 02:38:42;;;;;;;;;;;;;;;2.50;74.51;101748.97;4952294;28;19940;-74
2023/03/29 02:41:09;;;;;;;;;;;;;;;2.49;74.29;101744.69;4944488;28;19932;-74
2023/03/29 02:43:35;;;;;;;;;;;;;;;2.42;74.81;101737.50;4963145;28;19946;-72
2023/03/29 02:46:01;;;;;;;;;;;;;;;2.49;74.30;101734.09;4948823;28;19941;-73
2023/03/29 02:48:28;;;;;;;;;;;;;;;2.49;74.67;101734.09;4962269;28;20432;-73
2023/03/29 02:50:55;;;;;;;;;;;;;;;2.48;75.18;101733.28;4948014;28;19963;-74
2023/03/29 02:53:41;;;;;;;;;;;;;;;2.45;74.92;101731.03;4957753;28;20440;-74
2023/03/29 02:56:07;;;;;;;;;;;;;;;2.45;74.83;101723.94;4964666;28;20475;-73
2023/03/29 02:58:35;;;;;;;;;;;;;;;2.44;74.90;101719.66;4977955;28;19940;-74
2023/03/29 03:01:01;;;;;;;;;;;;;;;2.43;74.66;101718.00;4964085;28;19954;-74
2023/03/29 03:03:27;;;;;;;;;;;;;;;2.40;74.52;101714.94;4960564;28;19933;-73
2023/03/29 03:05:54;;;;;;;;;;;;;;;2.39;73.49;101711.47;4962136;28;19981;-74
2023/03/29 03:08:19;;;;;;;;;;;;;;;2.40;73.50;101707.81;4960758;28;19997;-74
2023/03/29 03:10:46;;;;;;;;;;;;;;;2.28;73.91;101711.97;4963625;28;19954;-73
2023/03/29 03:13:12;;;;;;;;;;;;;;;2.30;73.90;101707.31;4961400;28;19959;-73
2023/03/29 03:15:41;;;;;;;;;;;;;;;2.26;73.94;101698.16;4958529;28;19984;-73
2023/03/29 03:18:09;;;;;;;;;;;;;;;2.27;73.81;101701.59;4959732;28;19943;-74
2023/03/29 03:20:35;;;;;;;;;;;;;;;2.17;74.00;101708.03;4946014;28;20312;-76
2023/03/29 03:23:02;;;;;;;;;;;;;;;2.17;73.87;101699.31;4943402;29;19932;-74
2023/03/29 03:25:28;;;;;;;;;;;;;;;2.14;74.24;101697.03;4947646;28;19946;-73
2023/03/29 03:27:54;;;;;;;;;;;;;;;2.11;74.34;101698.22;4941842;28;19941;-73
2023/03/29 03:30:22;;;;;;;;;;;;;;;2.03;74.94;101694.88;4960054;28;19960;-73
2023/03/29 03:33:06;;;;;;;;;;;;;;;2.03;74.93;101698.38;4963502;28;19964;-74
2023/03/29 03:35:50;;;;;;;;;;;;;;;2.02;75.00;101685.31;4959269;28;19935;-73
2023/03/29 03:38:16;;;;;;;;;;;;;;;1.91;75.60;101682.19;4941010;28;19937;-73
2023/03/29 03:40:51;;;;;;;;;;;;;;;1.81;75.72;101688.78;4963748;28;19965;-73
2023/03/29 03:43:16;;;;;;;;;;;;;;;1.92;75.26;101686.47;4958632;28;19932;-74
2023/03/29 03:45:44;;;;;;;;;;;;;;;1.94;75.50;101685.47;4961265;28;19963;-74
2023/03/29 03:48:19;;;;;;;;;;;;;;;1.92;75.96;101683.03;4945818;28;20313;-72
2023/03/29 03:50:54;;;;;;;;;;;;;;;1.96;76.09;101678.97;4957661;28;20421;-73
2023/03/29 03:53:20;;;;;;;;;;;;;;;1.99;75.59;101677.78;4941992;28;19960;-73
2023/03/29 03:56:07;;;;;;;;;;;;;;;2.06;74.85;101674.19;4961107;28;19938;-73
2023/03/29 03:58:38;;;;;;;;;;;;;;;2.07;74.62;101681.13;4922745;28;20467;-73
2023/03/29 04:01:07;;;;;;;;;;;;;;;2.08;74.29;101669.53;4961810;28;20497;-73
2023/03/29 04:03:39;;;;;;;;;;;;;;;2.06;74.35;101661.00;4955923;28;19933;-73
2023/03/29 04:06:08;;;;;;;;;;;;;;;2.05;74.47;101667.28;4960125;28;19951;-72
2023/03/29 04:08:53;;;;;;;;;;;;;;;2.03;74.99;101679.03;4963574;28;19946;-74
2023/03/29 04:11:35;;;;;;;;;;;;;;;2.01;75.05;101665.22;4950166;28;20881;-72
2023/03/29 04:14:01;;;;;;;;;;;;;;;1.96;75.51;101675.53;4947917;28;19993;-73
2023/03/29 04:16:37;;;;;;;;;;;;;;;1.94;75.41;101669.63;4941376;28;19937;-73
2023/03/29 04:19:21;;;;;;;;;;;;;;;1.97;75.03;101672.72;4943830;28;19996;-73
2023/03/29 04:21:48;;;;;;;;;;;;;;;1.97;75.31;101671.91;4960225;28;20488;-75
2023/03/29 04:24:15;;;;;;;;;;;;;;;1.92;75.76;101667.97;4962100;28;19965;-73
2023/03/29 04:26:43;;;;;;;;;;;;;;;1.97;75.88;101672.72;4962547;28;19938;-72
2023/03/29 04:29:16;;;;;;;;;;;;;;;2.00;75.53;101674.16;4962307;28;19961;-73
2023/03/29 04:31:47;;;;;;;;;;;;;;;1.99;75.73;101677.78;4964385;28;20032;-72
2023/03/29 04:34:38;;;;;;;;;;;;;;;1.95;76.03;101664.13;4955448;28;20543;-73
2023/03/29 04:37:09;;;;;;;;;;;;;;;1.90;76.58;101663.91;4946905;28;19942;-72
2023/03/29 04:39:35;;;;;;;;;;;;;;;1.88;75.84;101660.63;4962186;28;19959;-72
2023/03/29 04:42:04;;;;;;;;;;;;;;;1.86;76.35;101663.47;4961218;28;19944;-73
2023/03/29 04:44:32;;;;;;;;;;;;;;;1.88;76.58;101666.72;4964048;28;19946;-72
2023/03/29 04:46:59;;;;;;;;;;;;;;;1.86;76.86;101652.88;4942343;28;20025;-74
2023/03/29 04:49:47;;;;;;;;;;;;;;;1.94;75.79;101649.28;4955847;28;20057;-74
2023/03/29 04:52:21;;;;;;;;;;;;;;;1.90;75.77;101642.78;4957675;28;19937;-73
2023/03/29 04:54:46;;;;;;;;;;;;;;;1.89;75.66;101649.84;4960394;28;19954;-73
2023/03/29 04:57:23;;;;;;;;;;;;;;;1.93;75.98;101645.03;4963557;28;20066;-72
2023/03/29 04:59:51;;;;;;;;;;;;;;;1.99;76.13;101646.91;4962609;28;20403;-73
2023/03/29 05:02:37;;;;;;;;;;;;;;;1.98;76.01;101642.63;4955486;28;19932;-72
2023/03/29 05:05:03;;;;;;;;;;;;;;;1.94;76.14;101654.56;4944877;28;19935;-74
2023/03/29 05:07:29;;;;;;;;;;;;;;;1.94;76.43;101649.28;4933665;28;19996;-73
2023/03/29 05:09:56;;;;;;;;;;;;;;;1.96;76.16;101642.00;4944682;28;19953;-73
2023/03/29 05:12:21;;;;;;;;;;;;;;;1.95;76.07;101631.63;4960992;28;20977;-72
2023/03/29 05:14:51;;;;;;;;;;;;;;;1.98;76.22;101640.00;4960257;28;19952;-73
2023/03/29 05:17:17;;;;;;;;;;;;;;;2.02;75.83;101641.22;4949125;28;19948;-73
2023/03/29 05:19:43;;;;;;;;;;;;;;;2.13;76.00;101643.34;4947178;28;19964;-73
2023/03/29 05:22:08;;;;;;;;;;;;;;;2.13;75.52;101634.63;4945387;28;20299;-73
2023/03/29 05:24:35;;;;;;;;;;;;;;;2.14;75.52;101641.53;4980453;28;19943;-73
2023/03/29 05:27:07;;;;;;;;;;;;;;;2.19;75.39;101636.50;4966753;28;19934;-75
2023/03/29 05:29:35;;;;;;;;;;;;;;;2.26;75.27;101632.06;4954599;28;20085;-72
2023/03/29 05:32:24;;;;;;;;;;;;;;;2.19;75.66;101636.50;4943061;28;20395;-74
2023/03/29 05:34:50;;;;;;;;;;;;;;;2.20;75.90;101632.84;4956960;28;19960;-72
2023/03/29 05:37:16;;;;;;;;;;;;;;;2.20;75.50;101627.56;4958107;28;19936;-73
2023/03/29 05:39:53;;;;;;;;;;;;;;;2.27;75.67;101623.13;4958063;28;20085;-74
2023/03/29 05:42:25;;;;;;;;;;;;;;;2.32;76.42;101630.50;4931797;28;19944;-74
2023/03/29 05:45:01;;;;;;;;;;;;;;;2.38;75.58;101625.25;4965907;28;19931;-73
2023/03/29 05:47:28;;;;;;;;;;;;;;;2.41;76.23;101619.56;4962282;28;19944;-72
2023/03/29 05:49:53;;;;;;;;;;;;;;;2.56;75.63;101613.34;4943630;28;19950;-73
2023/03/29 05:52:21;;;;;;;;;;;;;;;2.56;76.06;101611.50;4954774;28;19949;-73
2023/03/29 05:54:46;;;;;;;;;;;;;;;2.65;76.04;101609.53;4937636;28;19949;-73
2023/03/29 05:57:12;;;;;;;;;;;;;;;2.64;75.77;101602.59;4958133;28;19941;-73
2023/03/29 05:59:38;;;;;;;;;;;;;;;2.69;75.58;101606.28;4958114;28;20295;-75
2023/03/29 06:02:04;;;;;;;;;;;;;;;2.70;75.21;101607.09;4937963;28;20416;-72
2023/03/29 06:04:32;;;;;;;;;;;;;;;2.77;75.65;101604.47;4932823;28;19935;-74
2023/03/29 06:07:17;;;;;;;;;;;;;;;2.84;75.59;101602.69;4959205;28;20042;-74
2023/03/29 06:09:49;;;;;;;;;;;;;;;2.83;75.51;101606.34;4958809;28;19998;-74
2023/03/29 06:12:18;;;;;;;;;;;;;;;2.89;75.47;101610.84;4940925;28;19938;-74
2023/03/29 06:14:50;;;;;;;;;;;;;;;2.93;75.61;101607.63;4960879;28;19958;-74
2023/03/29 06:17:21;;;;;;;;;;;;;;;2.97;75.51;101610.66;4946660;28;19952;-75
2023/03/29 06:19:47;;;;;;;;;;;;;;;2.97;75.59;101608.84;4935756;28;20503;-73
2023/03/29 06:22:14;;;;;;;;;;;;;;;3.01;75.21;101606.63;4959776;28;19948;-73
2023/03/29 06:24:40;;;;;;;;;;;;;;;3.07;75.63;101608.47;4930859;28;19935;-73
2023/03/29 06:27:13;;;;;;;;;;;;;;;3.27;75.48;101609.34;4951293;28;19984;-75
2023/03/29 06:29:40;;;;;;;;;;;;;;;3.23;75.42;101605.47;4958048;28;20443;-75
2023/03/29 06:32:06;;;;;;;;;;;;;;;3.33;75.34;101607.75;4938596;28;19990;-73
2023/03/29 06:34:46;;;;;;;;;;;;;;;3.42;75.32;101608.38;4956594;28;19948;-72
2023/03/29 06:37:24;;;;;;;;;;;;;;;3.64;74.68;101601.88;4964823;28;19938;-73
2023/03/29 06:39:58;;;;;;;;;;;;;;;3.62;74.47;101600.44;4937526;28;19949;-73
2023/03/29 06:42:29;;;;;;;;;;;;;;;3.64;74.47;101609.81;4963085;28;20044;-72
2023/03/29 06:45:13;;;;;;;;;;;;;;;3.65;74.20;101616.75;4962930;28;19999;-72
2023/03/29 06:47:39;;;;;;;;;;;;;;;3.69;74.25;101617.16;4944498;28;20399;-72
2023/03/29 06:50:05;;;;;;;;;;;;;;;3.72;74.67;101619.41;4928423;28;19957;-71
2023/03/29 06:53:03;;;;;;;;;;;;;;;3.77;74.81;101625.72;4956117;28;19959;-73
2023/03/29 06:55:30;;;;;;;;;;;;;;;3.72;74.74;101617.56;4933114;28;19943;-74
2023/03/29 06:57:59;;;;;;;;;;;;;;;3.69;74.74;101612.69;4961297;28;19937;-75
2023/03/29 07:00:28;;;;;;;;;;;;;;;3.79;74.52;101613.13;4945767;28;19948;-74
2023/03/29 07:03:22;;;;;;;;;;;;;;;3.93;74.55;101613.94;4945994;28;19938;-72
2023/03/29 07:05:50;;;;;;;;;;;;;;;3.96;74.84;101621.47;4959393;28;19992;-72
2023/03/29 07:08:17;;;;;;;;;;;;;;;4.00;74.63;101617.38;4940452;28;19989;-75
2023/03/29 07:10:52;;;;;;;;;;;;;;;4.10;74.39;101603.72;4943414;28;19964;-76
2023/03/29 07:13:36;;;;;;;;;;;;;;;4.30;74.36;101606.34;4959926;28;20464;-73
2023/03/29 07:16:05;;;;;;;;;;;;;;;4.37;74.07;101610.59;4962047;28;19938;-73
2023/03/29 07:18:38;;;;;;;;;;;;;;;4.40;73.96;101606.72;4957730;28;19932;-73
2023/03/29 07:21:04;;;;;;;;;;;;;;;4.50;74.24;101606.28;4960100;28;19962;-73
2023/03/29 07:23:30;;;;;;;;;;;;;;;4.46;73.31;101613.03;4981660;28;20036;-74
2023/03/29 07:25:56;;;;;;;;;;;;;;;4.72;73.08;101609.50;4957028;28;20003;-74
2023/03/29 07:28:21;;;;;;;;;;;;;;;4.76;72.48;101600.91;4947336;28;19945;-73
2023/03/29 07:30:48;;;;;;;;;;;;;;;5.01;72.29;101603.66;4936142;28;19997;-74
2023/03/29 07:33:19;;;;;;;;;;;;;;;5.00;71.80;101603.88;4959638;28;19997;-74
2023/03/29 07:35:49;;;;;;;;;;;;;;;5.10;71.55;101607.72;4961399;28;20067;-75
2023/03/29 07:38:15;;;;;;;;;;;;;;;5.03;71.66;101601.63;4966536;28;20022;-73
2023/03/29 07:40:45;;;;;;;;;;;;;;;5.19;71.56;101601.13;4957135;28;19986;-76
2023/03/29 07:43:30;;;;;;;;;;;;;;;5.62;71.14;101595.13;4968654;28;19982;-73
2023/03/29 07:45:59;;;;;;;;;;;;;;;5.56;71.20;101601.31;4966000;28;20029;-74
2023/03/29 07:48:24;;;;;;;;;;;;;;;5.64;70.70;101593.06;4960387;28;19945;-73
2023/03/29 07:50:54;;;;;;;;;;;;;;;5.81;70.32;101600.50;4961584;28;19957;-75
2023/03/29 07:53:28;;;;;;;;;;;;;;;5.65;70.65;101591.22;4961470;28;20325;-74
2023/03/29 07:55:55;;;;;;;;;;;;;;;5.72;70.60;101592.81;4947373;28;19937;-73
2023/03/29 07:58:45;;;;;;;;;;;;;;;5.67;69.94;101586.50;4947650;28;20353;-74
2023/03/29 08:01:14;;;;;;;;;;;;;;;5.73;70.17;101597.06;4964650;28;20012;-74
2023/03/29 08:03:58;;;;;;;;;;;;;;;5.84;71.06;101595.56;4952568;28;19930;-74
2023/03/29 08:06:44;;;;;;;;;;;;;;;5.75;71.05;101584.38;4955408;28;20059;-74
2023/03/29 08:09:11;;;;;;;;;;;;;;;5.69;70.47;101593.25;4956095;28;20501;-74
2023/03/29 08:11:40;;;;;;;;;;;;;;;5.72;70.72;101587.47;4947433;28;20014;-74
2023/03/29 08:14:15;;;;;;;;;;;;;;;5.79;70.74;101581.31;4942319;28;19955;-73
2023/03/29 08:16:54;;;;;;;;;;;;;;;6.02;69.99;101573.56;4962413;28;19943;-74
2023/03/29 08:19:20;;;;;;;;;;;;;;;5.83;70.42;101582.50;4959673;28;19973;-73
2023/03/29 08:21:59;;;;;;;;;;;;;;;6.11;70.12;101569.59;4961423;28;19989;-74
2023/03/29 08:24:28;;;;;;;;;;;;;;;6.21;69.71;101569.88;4949149;28;19944;-74
2023/03/29 08:26:59;;;;;;;;;;;;;;;6.38;68.95;101564.00;4962223;28;20263;-73
2023/03/29 08:29:24;;;;;;;;;;;;;;;6.46;69.26;101571.69;4943261;28;20470;-73
2023/03/29 08:31:50;;;;;;;;;;;;;;;6.56;69.21;101563.97;4951830;28;19942;-74
2023/03/29 08:34:15;;;;;;;;;;;;;;;6.81;67.85;101563.91;4963259;28;20368;-74
2023/03/29 08:37:00;;;;;;;;;;;;;;;6.81;68.93;101563.91;4966607;28;19972;-75
2023/03/29 08:39:36;;;;;;;;;;;;;;;6.61;67.28;101563.31;4961759;28;19962;-74
2023/03/29 08:42:46;;;;;;;;;;;;;;;6.42;68.28;101567.84;4944157;28;20913;-75
2023/03/29 08:45:32;;;;;;;;;;;;;;;6.32;68.50;101562.22;4944734;28;20321;-72
2023/03/29 08:47:59;;;;;;;;;;;;;;;6.30;69.04;101557.13;4943158;28;19937;-72
2023/03/29 08:50:32;;;;;;;;;;;;;;;6.32;69.21;101567.53;4961449;28;19971;-73
2023/03/29 08:53:06;;;;;;;;;;;;;;;6.21;69.49;101555.78;4955084;28;19987;-74
2023/03/29 08:55:52;;;;;;;;;;;;;;;6.34;69.29;101558.28;4961692;28;19938;-73
2023/03/29 08:58:51;;;;;;;;;;;;;;;6.46;69.08;101553.06;4957378;28;20607;-72
2023/03/29 09:01:17;;;;;;;;;;;;;;;6.41;69.18;101556.38;4941175;28;19942;-73
2023/03/29 09:04:10;;;;;;;;;;;;;;;6.43;68.75;101561.47;4943266;28;19963;-73
2023/03/29 09:06:54;;;;;;;;;;;;;;;6.47;69.02;101557.34;4946461;28;19945;-74
2023/03/29 09:09:27;;;;;;;;;;;;;;;6.55;68.54;101552.53;4958895;28;20791;-74
2023/03/29 09:12:00;;;;;;;;;;;;;;;6.74;68.74;101548.00;4957976;28;19938;-74
2023/03/29 09:14:27;;;;;;;;;;;;;;;7.02;66.57;101549.28;4942607;28;20374;-73
2023/03/29 09:16:57;;;;;;;;;;;;;;;7.23;66.84;101546.09;4956659;28;20032;-74
2023/03/29 09:19:29;;;;;;;;;;;;;;;7.38;66.58;101543.84;4945623;28;20675;-74
2023/03/29 09:21:54;;;;;;;;;;;;;;;7.52;65.29;101551.59;4955917;28;19934;-73
2023/03/29 09:24:45;;;;;;;;;;;;;;;7.33;65.21;101551.69;4935605;28;20904;-73
2023/03/29 09:27:31;;;;;;;;;;;;;;;7.25;65.93;101538.72;4956915;28;19984;-73
2023/03/29 09:30:10;;;;;;;;;;;;;;;7.27;65.69;101535.81;4959443;28;19953;-73
2023/03/29 09:33:07;;;;;;;;;;;;;;;7.71;66.20;101523.81;4955548;28;19941;-74
2023/03/29 09:36:01;;;;;;;;;;;;;;;7.78;65.77;101532.50;4956967;28;19967;-73
2023/03/29 09:38:28;;;;;;;;;;;;;;;7.96;64.33;101536.94;4961691;28;20016;-74
2023/03/29 09:40:56;;;;;;;;;;;;;;;7.95;64.92;101537.97;4960495;28;19999;-74
2023/03/29 09:43:31;;;;;;;;;;;;;;;8.53;63.58;101541.63;4956270;28;20144;-73
2023/03/29 09:46:01;;;;;;;;;;;;;;;8.44;63.02;101531.31;4955825;28;19942;-74
2023/03/29 09:48:28;;;;;;;;;;;;;;;8.45;62.98;101532.94;4962221;28;19983;-73
2023/03/29 09:50:56;;;;;;;;;;;;;;;8.55;64.14;101527.00;4958331;28;19955;-73
2023/03/29 09:53:22;;;;;;;;;;;;;;;8.31;63.46;101528.06;4938683;28;19956;-73
2023/03/29 09:56:00;;;;;;;;;;;;;;;8.25;63.67;101529.00;4937289;28;20031;-74
2023/03/29 09:59:01;;;;;;;;;;;;;;;8.13;63.52;101521.03;4952304;28;20002;-73
2023/03/29 10:01:35;;;;;;;;;;;;;;;8.32;63.57;101517.16;4947771;28;20378;-74
2023/03/29 10:04:01;;;;;;;;;;;;;;;8.39;63.68;101504.53;4935169;28;19937;-72
2023/03/29 10:06:28;;;;;;;;;;;;;;;8.83;62.96;101496.81;4946432;28;19945;-75
2023/03/29 10:08:58;;;;;;;;;;;;;;;8.54;62.76;101497.88;4945597;28;20037;-73
2023/03/29 10:11:37;;;;;;;;;;;;;;;8.67;62.78;101493.06;4978308;28;20073;-75
2023/03/29 10:14:04;;;;;;;;;;;;;;;8.33;63.54;101502.78;4956730;28;21729;-71
2023/03/29 10:16:35;;;;;;;;;;;;;;;8.52;63.45;101502.63;4940934;28;20033;-75
2023/03/29 10:19:19;;;;;;;;;;;;;;;9.12;62.81;101497.59;4943860;28;19936;-74
2023/03/29 10:21:49;;;;;;;;;;;;;;;8.83;62.85;101501.38;4958211;28;19940;-74
2023/03/29 10:24:21;;;;;;;;;;;;;;;8.93;63.15;101501.53;4956652;28;20524;-74
2023/03/29 10:26:54;;;;;;;;;;;;;;;8.37;63.90;101509.28;4951606;28;19945;-73
2023/03/29 10:29:20;;;;;;;;;;;;;;;8.22;65.78;101519.63;4956753;28;20462;-74
2023/03/29 10:31:46;;;;;;;;;;;;;;;8.12;65.78;101509.53;4962843;28;19975;-74
2023/03/29 10:34:14;;;;;;;;;;;;;;;8.20;65.47;101506.53;4961029;28;19983;-74
2023/03/29 10:36:41;;;;;;;;;;;;;;;7.97;66.71;101497.72;4964284;28;20350;-74
2023/03/29 10:39:08;;;;;;;;;;;;;;;8.15;65.75;101505.59;4962653;28;19946;-73
2023/03/29 10:41:34;;;;;;;;;;;;;;;8.33;65.40;101492.13;4947296;28;19940;-76
2023/03/29 10:44:00;;;;;;;;;;;;;;;8.51;65.62;101487.66;4946910;28;20331;-75
2023/03/29 10:46:27;;;;;;;;;;;;;;;8.68;64.86;101488.53;4955427;28;19942;-76
2023/03/29 10:48:57;;;;;;;;;;;;;;;9.06;63.83;101484.41;4939627;28;19948;-76
2023/03/29 10:51:23;;;;;;;;;;;;;;;9.03;63.43;101491.84;4959112;28;19946;-74
2023/03/29 10:53:49;;;;;;;;;;;;;;;8.99;64.64;101495.22;4955455;28;19952;-74
2023/03/29 10:56:15;;;;;;;;;;;;;;;9.00;64.53;101489.66;4958485;28;19992;-73
2023/03/29 10:58:56;;;;;;;;;;;;;;;8.90;65.16;101494.81;4961661;28;19938;-77
2023/03/29 11:01:30;;;;;;;;;;;;;;;8.90;65.06;101496.69;4959660;28;19941;-75
2023/03/29 11:03:56;;;;;;;;;;;;;;;8.83;65.64;101496.81;4957990;28;19949;-74
2023/03/29 11:06:35;;;;;;;;;;;;;;;8.99;64.95;101488.03;4958708;28;19958;-74
2023/03/29 11:09:05;;;;;;;;;;;;;;;9.33;64.44;101472.03;4963543;28;19943;-74
2023/03/29 11:11:31;;;;;;;;;;;;;;;9.24;64.30;101482.31;4946221;28;20103;-74
2023/03/29 11:13:56;;;;;;;;;;;;;;;9.26;64.90;101474.03;4941305;28;20423;-74
2023/03/29 11:16:55;;;;;;;;;;;;;;;9.10;65.49;101469.50;4986406;28;19944;-73
2023/03/29 11:19:38;;;;;;;;;;;;;;;8.97;64.84;101463.44;4949090;28;19960;-73
2023/03/29 11:22:27;;;;;;;;;;;;;;;8.84;66.29;101463.72;4942974;28;19986;-74
2023/03/29 11:25:05;;;;;;;;;;;;;;;8.92;66.42;101460.66;4981194;28;19934;-74
2023/03/29 11:27:30;;;;;;;;;;;;;;;8.62;66.68;101471.63;4961380;28;20000;-74
2023/03/29 11:29:59;;;;;;;;;;;;;;;8.53;67.63;101469.53;4963106;28;20453;-74
2023/03/29 11:32:33;;;;;;;;;;;;;;;8.50;67.83;101481.53;4964056;28;19944;-74
2023/03/29 11:35:26;;;;;;;;;;;;;;;8.37;68.22;101474.59;4946599;28;19951;-74
2023/03/29 11:38:00;;;;;;;;;;;;;;;8.55;68.09;101472.81;4941387;28;19964;-74
2023/03/29 11:40:34;;;;;;;;;;;;;;;8.78;68.02;101472.69;4966426;28;20013;-75
2023/03/29 11:43:03;;;;;;;;;;;;;;;8.77;67.62;101465.72;4963963;28;19938;-73
2023/03/29 11:45:36;;;;;;;;;;;;;;;8.75;67.17;101473.19;4950058;28;19975;-75
2023/03/29 11:48:06;;;;;;;;;;;;;;;8.73;67.30;101475.25;4947832;28;20002;-73
2023/03/29 11:50:38;;;;;;;;;;;;;;;8.44;67.83;101477.94;4976116;28;20016;-73
2023/03/29 11:53:11;;;;;;;;;;;;;;;8.50;68.07;101470.84;4984939;28;19963;-73
2023/03/29 11:55:38;;;;;;;;;;;;;;;8.45;67.62;101478.75;4960331;28;19942;-75
2023/03/29 11:58:14;;;;;;;;;;;;;;;8.38;67.89;101476.22;4960014;28;19960;-73
2023/03/29 12:01:00;;;;;;;;;;;;;;;8.54;68.91;101476.53;4977289;28;19961;-73
2023/03/29 12:03:35;;;;;;;;;;;;;;;8.71;68.55;101462.16;4953734;28;19949;-72
2023/03/29 12:06:14;;;;;;;;;;;;;;;8.77;67.62;101457.72;4957436;28;19947;-73
2023/03/29 12:08:51;;;;;;;;;;;;;;;8.81;66.96;101472.22;4944082;28;19943;-73
2023/03/29 12:11:36;;;;;;;;;;;;;;;8.80;68.01;101467.91;4981139;28;20000;-75
2023/03/29 12:14:22;;;;;;;;;;;;;;;8.81;67.36;101466.09;4944104;28;19964;-75
2023/03/29 12:17:08;;;;;;;;;;;;;;;8.67;67.09;101454.84;4943268;28;19976;-73
2023/03/29 12:19:36;;;;;;;;;;;;;;;8.83;66.94;101461.31;4963841;28;19951;-73
2023/03/29 12:22:06;;;;;;;;;;;;;;;8.78;67.30;101454.00;4978883;28;19990;-73
2023/03/29 12:24:39;;;;;;;;;;;;;;;8.84;67.59;101453.03;4979499;28;20026;-73
2023/03/29 12:27:10;;;;;;;;;;;;;;;9.16;67.52;101452.50;4961270;28;19946;-73
2023/03/29 12:29:45;;;;;;;;;;;;;;;8.93;67.49;101454.25;4962389;28;19962;-72
2023/03/29 12:32:36;;;;;;;;;;;;;;;9.35;67.37;101450.38;4962699;28;20053;-72
2023/03/29 12:35:42;;;;;;;;;;;;;;;9.14;67.07;101455.41;4953802;28;19945;-74
2023/03/29 12:38:28;;;;;;;;;;;;;;;9.14;67.03;101450.06;4963198;28;20007;-74
2023/03/29 12:41:17;;;;;;;;;;;;;;;9.31;67.23;101450.09;4938308;28;20949;-73
2023/03/29 12:44:22;;;;;;;;;;;;;;;9.06;67.08;101458.47;4957149;28;20436;-72
2023/03/29 12:46:57;;;;;;;;;;;;;;;8.93;68.46;101454.25;4959471;28;20376;-73
2023/03/29 12:49:31;;;;;;;;;;;;;;;9.07;68.25;101449.41;4963229;28;19958;-73
2023/03/29 12:51:58;;;;;;;;;;;;;;;9.12;68.49;101446.84;4944798;28;19958;-72
2023/03/29 12:54:26;;;;;;;;;;;;;;;9.33;68.23;101447.97;4961154;28;19955;-73
2023/03/29 12:56:51;;;;;;;;;;;;;;;9.00;68.03;101443.41;4965447;28;19938;-72
2023/03/29 12:59:36;;;;;;;;;;;;;;;9.12;68.60;101436.16;4964060;28;19998;-72
2023/03/29 13:02:22;;;;;;;;;;;;;;;9.06;67.94;101441.66;4958216;28;19938;-74
2023/03/29 13:04:49;;;;;;;;;;;;;;;9.41;67.39;101444.88;4938853;28;19979;-73
2023/03/29 13:07:21;;;;;;;;;;;;;;;9.30;67.24;101446.59;4957014;28;20331;-72
2023/03/29 13:09:47;;;;;;;;;;;;;;;9.38;67.47;101450.72;4946460;28;19964;-72
2023/03/29 13:12:15;;;;;;;;;;;;;;;9.62;66.74;101437.16;4962665;28;19941;-74
2023/03/29 13:14:42;;;;;;;;;;;;;;;9.46;67.72;101439.59;4959201;28;20391;-74